Salmon, ID

5:51 PM MDT on August 18, 2017 (GMT -0600)
Lemhi County | | Change Station
Active Advisory: Fire Weather Warning

Elev 4042 ft 45.12 °N, 113.88 °W | Updated 55 minutes ago

Clear
Clear
87 °F
Feels Like 87 °F
N
6
Wind Variable Wind from NNW

Today
High -- | Low -- °F
--% Chance of Precip.
Yesterday
High -- | Low -- °F
Precip. -- in
Pressure 29.91 in
Visibility 9.0 miles
Clouds Clear
Dew Point 39 °F
Humidity 18%
Rainfall 0.00 in
Snow Depth Not available.
6:40 AM 8:36 PM
Waning Crescent, 10% visible
METAR KSMN 182256Z AUTO 33005KT 9SM CLR 31/04 A3000 RMK AO2 SLP129 T03060039
Pressure 29.91 in
Visibility 9.0 miles
Clouds Clear
Dew Point 39 °F
Humidity 18%
Rainfall 0.00 in
Snow Depth Not available.
6:40 AM 8:36 PM
Waning Crescent, 10% visible
METAR KSMN 182256Z AUTO 33005KT 9SM CLR 31/04 A3000 RMK AO2 SLP129 T03060039

Get Your Daily Forecast Email!

Thanks for signing up!

Be on the lookout for a verification email in your inbox.

You'll start receiving severe weather alerts in your inbox..

×

10-Day Weather Forecast

Almanac

Astronomy

Aug. 18, 2017 Rise Set
Actual Time
Civil Twilight
Nautical Twilight
Astronomical Twilight
Moon
Length of Visible Light
Length of Day
Tomorrow will be .
, % of the Moon is Illuminated

Today's Extremes

State Highs State Lows

Community

WunderPhotos

Category 6

Welcome to Category 6. This is the collective home for Weather Underground's featured writeups by Dr. Jeff Masters (right), Bob Henson (left), Chris Burt, and other regular contributors.

Nearby

Air Quality

  Air Quality AQ Index Pollutant
Not available.

Snow Depth

Station Depth Elevation

Earthquake Activity

City Distance Mag. Time & Date
Minimum magnitude displayed is 2.5.

Coastal Water Temperatures

Place Temperature

Stations

Nearby Weather Stations

Station Location Temp. Windchill Dew Point Humidity Wind Precip. Elev Updated Type
                   

Watches & Warnings

Fire Weather Warning
Issued: 12:08 PM MDT Aug. 18, 2017 – National Weather Service

... Red flag warning in effect from noon to 9 PM MDT Saturday for
gusty winds and low relative humidity for fire weather zones 475
and 476...

The National Weather Service in Pocatello has issued a red flag
warning, which is in effect from noon to 9 PM MDT Saturday. The
Fire Weather Watch is no longer in effect.


* Affected area... southeast Idaho fire weather zone 475 and 476.

* Wind... west southwest winds 15 to 20 mph with gusts 25 to 30
mph. Southwest 20 to 25 mph with gusts around 35 mph at mid and
upper slopes.

* Humidity... minimum 7 to 16 percent.

* Impacts... any fires that develop will likely spread rapidly.
Outdoor burning is not recommended.

Precautionary/preparedness actions...

A red flag warning means that critical fire weather conditions
are either occurring now, or will shortly. Fires may experience
rapid rates of growth. Please advise the appropriate officials or
fire crews in the field of the red flag warning for portions of
southeast Idaho.